sensor_id;sensor_type;location;lat;lon;timestamp;P1;durP1;ratioP1;P2;durP2;ratioP2
43646;SDS011;56152;49.996;18.980;2023-04-25T00:03:01;19.95;;;15.52;;
43646;SDS011;56152;49.996;18.980;2023-04-25T00:08:05;29.80;;;20.40;;
43646;SDS011;56152;49.996;18.980;2023-04-25T00:13:11;22.63;;;16.23;;
43646;SDS011;56152;49.996;18.980;2023-04-25T00:18:14;18.73;;;14.80;;
43646;SDS011;56152;49.996;18.980;2023-04-25T00:23:26;24.35;;;17.80;;
43646;SDS011;56152;49.996;18.980;2023-04-25T00:28:30;20.63;;;15.65;;
43646;SDS011;56152;49.996;18.980;2023-04-25T00:33:36;21.83;;;15.77;;
43646;SDS011;56152;49.996;18.980;2023-04-25T00:38:38;16.00;;;13.07;;
43646;SDS011;56152;49.996;18.980;2023-04-25T00:43:42;21.73;;;16.15;;
43646;SDS011;56152;49.996;18.980;2023-04-25T00:48:46;23.27;;;15.10;;
43646;SDS011;56152;49.996;18.980;2023-04-25T00:53:49;24.30;;;15.40;;
43646;SDS011;56152;49.996;18.980;2023-04-25T00:58:57;17.73;;;13.55;;
43646;SDS011;56152;49.996;18.980;2023-04-25T01:04:00;18.98;;;12.88;;
43646;SDS011;56152;49.996;18.980;2023-04-25T01:09:02;18.70;;;13.55;;
43646;SDS011;56152;49.996;18.980;2023-04-25T01:14:07;13.00;;;10.32;;
43646;SDS011;56152;49.996;18.980;2023-04-25T01:19:12;11.38;;;9.35;;
43646;SDS011;56152;49.996;18.980;2023-04-25T01:24:20;12.75;;;8.70;;
43646;SDS011;56152;49.996;18.980;2023-04-25T01:29:26;11.38;;;7.85;;
43646;SDS011;56152;49.996;18.980;2023-04-25T01:34:29;10.02;;;7.25;;
43646;SDS011;56152;49.996;18.980;2023-04-25T01:39:33;9.10;;;7.75;;
43646;SDS011;56152;49.996;18.980;2023-04-25T01:44:35;11.63;;;8.25;;
43646;SDS011;56152;49.996;18.980;2023-04-25T01:49:38;12.98;;;7.85;;
43646;SDS011;56152;49.996;18.980;2023-04-25T01:54:43;15.40;;;9.23;;
43646;SDS011;56152;49.996;18.980;2023-04-25T01:59:48;12.57;;;8.40;;
43646;SDS011;56152;49.996;18.980;2023-04-25T02:04:54;12.23;;;8.70;;
43646;SDS011;56152;49.996;18.980;2023-04-25T02:09:59;12.77;;;8.55;;
43646;SDS011;56152;49.996;18.980;2023-04-25T02:15:02;11.30;;;7.50;;
43646;SDS011;56152;49.996;18.980;2023-04-25T02:20:05;10.50;;;6.88;;
43646;SDS011;56152;49.996;18.980;2023-04-25T02:25:13;13.55;;;8.75;;
43646;SDS011;56152;49.996;18.980;2023-04-25T02:30:15;9.30;;;5.53;;
43646;SDS011;56152;49.996;18.980;2023-04-25T02:35:18;8.23;;;5.32;;
43646;SDS011;56152;49.996;18.980;2023-04-25T02:40:22;7.20;;;5.03;;
43646;SDS011;56152;49.996;18.980;2023-04-25T02:45:24;6.82;;;4.72;;
43646;SDS011;56152;49.996;18.980;2023-04-25T02:50:28;9.00;;;4.80;;
43646;SDS011;56152;49.996;18.980;2023-04-25T02:55:34;6.88;;;5.45;;
43646;SDS011;56152;49.996;18.980;2023-04-25T03:00:36;11.85;;;8.38;;
43646;SDS011;56152;49.996;18.980;2023-04-25T03:05:38;12.10;;;6.90;;
43646;SDS011;56152;49.996;18.980;2023-04-25T03:10:43;7.22;;;5.70;;
43646;SDS011;56152;49.996;18.980;2023-04-25T03:15:45;9.43;;;6.53;;
43646;SDS011;56152;49.996;18.980;2023-04-25T03:20:48;13.00;;;7.32;;
43646;SDS011;56152;49.996;18.980;2023-04-25T03:25:52;12.65;;;7.57;;
43646;SDS011;56152;49.996;18.980;2023-04-25T03:30:54;6.88;;;5.15;;
43646;SDS011;56152;49.996;18.980;2023-04-25T03:36:00;11.57;;;5.38;;
43646;SDS011;56152;49.996;18.980;2023-04-25T03:41:06;13.70;;;6.65;;
43646;SDS011;56152;49.996;18.980;2023-04-25T03:46:07;9.82;;;5.63;;
43646;SDS011;56152;49.996;18.980;2023-04-25T03:51:10;6.72;;;5.68;;
43646;SDS011;56152;49.996;18.980;2023-04-25T03:56:16;8.32;;;5.15;;
43646;SDS011;56152;49.996;18.980;2023-04-25T04:01:20;15.57;;;6.32;;
43646;SDS011;56152;49.996;18.980;2023-04-25T04:06:22;25.10;;;9.55;;
43646;SDS011;56152;49.996;18.980;2023-04-25T04:11:29;14.05;;;8.80;;
43646;SDS011;56152;49.996;18.980;2023-04-25T04:16:32;15.95;;;7.65;;
43646;SDS011;56152;49.996;18.980;2023-04-25T04:21:34;9.20;;;5.95;;
43646;SDS011;56152;49.996;18.980;2023-04-25T04:26:38;9.60;;;5.35;;
43646;SDS011;56152;49.996;18.980;2023-04-25T04:31:40;7.55;;;6.13;;
43646;SDS011;56152;49.996;18.980;2023-04-25T04:36:44;9.55;;;5.90;;
43646;SDS011;56152;49.996;18.980;2023-04-25T04:41:48;10.85;;;6.28;;
43646;SDS011;56152;49.996;18.980;2023-04-25T04:46:51;8.38;;;5.60;;
43646;SDS011;56152;49.996;18.980;2023-04-25T04:51:53;9.68;;;6.15;;
43646;SDS011;56152;49.996;18.980;2023-04-25T04:56:57;11.70;;;6.35;;
43646;SDS011;56152;49.996;18.980;2023-04-25T05:01:59;8.00;;;4.88;;
43646;SDS011;56152;49.996;18.980;2023-04-25T05:07:03;8.32;;;5.20;;
43646;SDS011;56152;49.996;18.980;2023-04-25T05:12:08;8.15;;;5.15;;
43646;SDS011;56152;49.996;18.980;2023-04-25T05:17:12;8.77;;;5.80;;
43646;SDS011;56152;49.996;18.980;2023-04-25T05:22:15;10.30;;;8.02;;
43646;SDS011;56152;49.996;18.980;2023-04-25T05:27:19;9.32;;;6.60;;
43646;SDS011;56152;49.996;18.980;2023-04-25T05:32:22;14.10;;;7.07;;
43646;SDS011;56152;49.996;18.980;2023-04-25T05:37:25;8.80;;;5.35;;
43646;SDS011;56152;49.996;18.980;2023-04-25T05:42:35;8.05;;;5.20;;
43646;SDS011;56152;49.996;18.980;2023-04-25T05:47:39;11.02;;;6.43;;
43646;SDS011;56152;49.996;18.980;2023-04-25T05:52:42;6.70;;;4.45;;
43646;SDS011;56152;49.996;18.980;2023-04-25T05:57:46;8.90;;;5.95;;
43646;SDS011;56152;49.996;18.980;2023-04-25T06:02:48;15.10;;;8.60;;
43646;SDS011;56152;49.996;18.980;2023-04-25T06:07:50;11.88;;;7.25;;
43646;SDS011;56152;49.996;18.980;2023-04-25T06:12:56;12.48;;;5.45;;
43646;SDS011;56152;49.996;18.980;2023-04-25T06:17:58;11.57;;;6.30;;
43646;SDS011;56152;49.996;18.980;2023-04-25T06:23:00;8.25;;;5.10;;
43646;SDS011;56152;49.996;18.980;2023-04-25T06:28:04;13.18;;;7.50;;
43646;SDS011;56152;49.996;18.980;2023-04-25T06:33:05;13.23;;;6.85;;
43646;SDS011;56152;49.996;18.980;2023-04-25T06:38:08;15.25;;;7.03;;
43646;SDS011;56152;49.996;18.980;2023-04-25T06:43:13;10.15;;;6.65;;
43646;SDS011;56152;49.996;18.980;2023-04-25T06:48:19;10.48;;;7.10;;
43646;SDS011;56152;49.996;18.980;2023-04-25T06:53:22;17.90;;;9.25;;
43646;SDS011;56152;49.996;18.980;2023-04-25T06:58:29;12.40;;;7.05;;
43646;SDS011;56152;49.996;18.980;2023-04-25T07:03:32;12.32;;;7.15;;
43646;SDS011;56152;49.996;18.980;2023-04-25T07:08:34;16.33;;;8.00;;
43646;SDS011;56152;49.996;18.980;2023-04-25T07:13:38;16.33;;;9.27;;
43646;SDS011;56152;49.996;18.980;2023-04-25T07:18:40;10.25;;;6.53;;
43646;SDS011;56152;49.996;18.980;2023-04-25T07:23:42;20.33;;;11.93;;
43646;SDS011;56152;49.996;18.980;2023-04-25T07:28:46;15.52;;;8.70;;
43646;SDS011;56152;49.996;18.980;2023-04-25T07:33:50;9.32;;;6.18;;
43646;SDS011;56152;49.996;18.980;2023-04-25T07:38:53;11.23;;;8.07;;
43646;SDS011;56152;49.996;18.980;2023-04-25T07:43:56;8.75;;;6.53;;
43646;SDS011;56152;49.996;18.980;2023-04-25T07:49:01;5.60;;;4.18;;
43646;SDS011;56152;49.996;18.980;2023-04-25T07:54:04;15.70;;;8.25;;
43646;SDS011;56152;49.996;18.980;2023-04-25T07:59:08;8.48;;;5.35;;
43646;SDS011;56152;49.996;18.980;2023-04-25T08:04:10;14.32;;;8.30;;
43646;SDS011;56152;49.996;18.980;2023-04-25T08:09:13;9.98;;;5.63;;
43646;SDS011;56152;49.996;18.980;2023-04-25T08:14:17;17.02;;;8.32;;
43646;SDS011;56152;49.996;18.980;2023-04-25T08:19:21;10.45;;;7.00;;
43646;SDS011;56152;49.996;18.980;2023-04-25T08:24:24;7.30;;;4.47;;
43646;SDS011;56152;49.996;18.980;2023-04-25T08:29:28;6.75;;;4.88;;
43646;SDS011;56152;49.996;18.980;2023-04-25T08:34:33;7.28;;;4.82;;
43646;SDS011;56152;49.996;18.980;2023-04-25T08:39:38;8.80;;;4.90;;
43646;SDS011;56152;49.996;18.980;2023-04-25T08:44:43;10.05;;;5.57;;
43646;SDS011;56152;49.996;18.980;2023-04-25T08:49:46;9.55;;;4.80;;
43646;SDS011;56152;49.996;18.980;2023-04-25T08:54:49;7.20;;;5.13;;
43646;SDS011;56152;49.996;18.980;2023-04-25T08:59:54;7.97;;;4.35;;
43646;SDS011;56152;49.996;18.980;2023-04-25T09:04:58;5.60;;;3.92;;
43646;SDS011;56152;49.996;18.980;2023-04-25T09:10:06;6.50;;;3.60;;
43646;SDS011;56152;49.996;18.980;2023-04-25T09:15:12;5.57;;;4.03;;
43646;SDS011;56152;49.996;18.980;2023-04-25T09:20:15;3.38;;;2.92;;
43646;SDS011;56152;49.996;18.980;2023-04-25T09:25:18;4.82;;;3.10;;
43646;SDS011;56152;49.996;18.980;2023-04-25T09:30:30;4.57;;;3.03;;
43646;SDS011;56152;49.996;18.980;2023-04-25T09:35:35;3.88;;;3.05;;
43646;SDS011;56152;49.996;18.980;2023-04-25T09:40:41;6.03;;;3.65;;
43646;SDS011;56152;49.996;18.980;2023-04-25T09:45:48;4.97;;;3.20;;
43646;SDS011;56152;49.996;18.980;2023-04-25T09:51:03;4.10;;;3.10;;
43646;SDS011;56152;49.996;18.980;2023-04-25T09:56:09;6.07;;;3.75;;
43646;SDS011;56152;49.996;18.980;2023-04-25T10:01:13;4.50;;;2.97;;
43646;SDS011;56152;49.996;18.980;2023-04-25T10:06:20;6.43;;;2.90;;
43646;SDS011;56152;49.996;18.980;2023-04-25T10:11:26;2.97;;;2.03;;
43646;SDS011;56152;49.996;18.980;2023-04-25T10:16:30;2.80;;;2.20;;
43646;SDS011;56152;49.996;18.980;2023-04-25T10:21:33;6.15;;;3.22;;
43646;SDS011;56152;49.996;18.980;2023-04-25T10:26:36;5.20;;;2.90;;
43646;SDS011;56152;49.996;18.980;2023-04-25T10:31:45;6.82;;;3.20;;
43646;SDS011;56152;49.996;18.980;2023-04-25T10:41:55;6.90;;;3.47;;
43646;SDS011;56152;49.996;18.980;2023-04-25T10:47:00;7.18;;;3.55;;
43646;SDS011;56152;49.996;18.980;2023-04-25T10:52:12;4.20;;;2.80;;
43646;SDS011;56152;49.996;18.980;2023-04-25T10:57:26;2.88;;;2.20;;
43646;SDS011;56152;49.996;18.980;2023-04-25T11:02:37;6.85;;;3.25;;
43646;SDS011;56152;49.996;18.980;2023-04-25T11:07:45;6.05;;;3.80;;
43646;SDS011;56152;49.996;18.980;2023-04-25T11:12:52;7.22;;;3.55;;
43646;SDS011;56152;49.996;18.980;2023-04-25T11:18:00;9.27;;;4.53;;
43646;SDS011;56152;49.996;18.980;2023-04-25T11:23:04;7.80;;;4.22;;
43646;SDS011;56152;49.996;18.980;2023-04-25T11:28:06;6.35;;;3.47;;
43646;SDS011;56152;49.996;18.980;2023-04-25T11:33:10;6.55;;;3.55;;
43646;SDS011;56152;49.996;18.980;2023-04-25T11:38:12;4.40;;;3.00;;
43646;SDS011;56152;49.996;18.980;2023-04-25T11:43:14;6.72;;;4.35;;
43646;SDS011;56152;49.996;18.980;2023-04-25T11:48:23;4.85;;;2.90;;
43646;SDS011;56152;49.996;18.980;2023-04-25T11:53:25;5.28;;;3.47;;
43646;SDS011;56152;49.996;18.980;2023-04-25T11:58:28;6.47;;;3.58;;
43646;SDS011;56152;49.996;18.980;2023-04-25T12:03:32;6.47;;;3.80;;
43646;SDS011;56152;49.996;18.980;2023-04-25T12:08:36;4.03;;;2.60;;
43646;SDS011;56152;49.996;18.980;2023-04-25T12:13:38;8.27;;;3.17;;
43646;SDS011;56152;49.996;18.980;2023-04-25T12:18:42;11.07;;;4.60;;
43646;SDS011;56152;49.996;18.980;2023-04-25T12:23:44;9.35;;;4.72;;
43646;SDS011;56152;49.996;18.980;2023-04-25T12:28:46;16.92;;;9.75;;
43646;SDS011;56152;49.996;18.980;2023-04-25T12:33:50;5.82;;;3.53;;
43646;SDS011;56152;49.996;18.980;2023-04-25T12:38:52;7.70;;;3.00;;
43646;SDS011;56152;49.996;18.980;2023-04-25T12:43:53;6.93;;;3.13;;
43646;SDS011;56152;49.996;18.980;2023-04-25T12:49:00;9.60;;;2.70;;
43646;SDS011;56152;49.996;18.980;2023-04-25T12:54:04;12.57;;;6.63;;
43646;SDS011;56152;49.996;18.980;2023-04-25T12:59:07;4.13;;;2.80;;
43646;SDS011;56152;49.996;18.980;2023-04-25T13:04:11;6.60;;;3.22;;
43646;SDS011;56152;49.996;18.980;2023-04-25T13:09:16;5.82;;;3.75;;
43646;SDS011;56152;49.996;18.980;2023-04-25T13:14:18;5.82;;;4.00;;
43646;SDS011;56152;49.996;18.980;2023-04-25T13:19:24;11.85;;;4.97;;
43646;SDS011;56152;49.996;18.980;2023-04-25T13:24:26;7.57;;;4.43;;
43646;SDS011;56152;49.996;18.980;2023-04-25T13:29:30;7.10;;;3.25;;
43646;SDS011;56152;49.996;18.980;2023-04-25T13:34:36;7.90;;;3.45;;
43646;SDS011;56152;49.996;18.980;2023-04-25T13:39:38;3.55;;;2.33;;
43646;SDS011;56152;49.996;18.980;2023-04-25T13:44:41;5.57;;;3.47;;
43646;SDS011;56152;49.996;18.980;2023-04-25T13:49:44;7.43;;;3.50;;
43646;SDS011;56152;49.996;18.980;2023-04-25T13:54:47;6.95;;;3.70;;
43646;SDS011;56152;49.996;18.980;2023-04-25T13:59:50;6.13;;;3.40;;
43646;SDS011;56152;49.996;18.980;2023-04-25T14:04:55;5.90;;;2.95;;
43646;SDS011;56152;49.996;18.980;2023-04-25T14:10:00;5.40;;;3.00;;
43646;SDS011;56152;49.996;18.980;2023-04-25T14:15:04;7.45;;;3.00;;
43646;SDS011;56152;49.996;18.980;2023-04-25T14:20:10;5.38;;;3.63;;
43646;SDS011;56152;49.996;18.980;2023-04-25T14:25:14;7.50;;;2.97;;
43646;SDS011;56152;49.996;18.980;2023-04-25T14:30:19;5.63;;;3.60;;
43646;SDS011;56152;49.996;18.980;2023-04-25T14:35:24;7.13;;;3.85;;
43646;SDS011;56152;49.996;18.980;2023-04-25T14:40:26;4.53;;;3.03;;
43646;SDS011;56152;49.996;18.980;2023-04-25T14:45:29;8.77;;;3.63;;
43646;SDS011;56152;49.996;18.980;2023-04-25T14:50:33;5.63;;;2.95;;
43646;SDS011;56152;49.996;18.980;2023-04-25T14:55:35;6.32;;;3.88;;
43646;SDS011;56152;49.996;18.980;2023-04-25T15:00:40;5.60;;;3.83;;
43646;SDS011;56152;49.996;18.980;2023-04-25T15:05:44;10.00;;;4.47;;
43646;SDS011;56152;49.996;18.980;2023-04-25T15:10:46;5.53;;;3.55;;
43646;SDS011;56152;49.996;18.980;2023-04-25T15:15:49;7.50;;;3.60;;
43646;SDS011;56152;49.996;18.980;2023-04-25T15:20:55;6.53;;;4.20;;
43646;SDS011;56152;49.996;18.980;2023-04-25T15:25:59;5.55;;;3.30;;
43646;SDS011;56152;49.996;18.980;2023-04-25T15:31:02;4.65;;;2.95;;
43646;SDS011;56152;49.996;18.980;2023-04-25T15:36:07;6.50;;;3.35;;
43646;SDS011;56152;49.996;18.980;2023-04-25T15:41:10;5.90;;;4.22;;
43646;SDS011;56152;49.996;18.980;2023-04-25T15:46:17;8.25;;;3.80;;
43646;SDS011;56152;49.996;18.980;2023-04-25T15:51:22;7.10;;;4.05;;
43646;SDS011;56152;49.996;18.980;2023-04-25T15:56:31;4.93;;;3.50;;
43646;SDS011;56152;49.996;18.980;2023-04-25T16:01:34;7.20;;;3.90;;
43646;SDS011;56152;49.996;18.980;2023-04-25T16:06:39;5.05;;;3.58;;
43646;SDS011;56152;49.996;18.980;2023-04-25T16:11:41;4.32;;;3.30;;
43646;SDS011;56152;49.996;18.980;2023-04-25T16:16:43;8.38;;;3.90;;
43646;SDS011;56152;49.996;18.980;2023-04-25T16:21:50;5.15;;;3.50;;
43646;SDS011;56152;49.996;18.980;2023-04-25T16:26:52;14.50;;;8.02;;
43646;SDS011;56152;49.996;18.980;2023-04-25T16:31:54;7.78;;;4.28;;
43646;SDS011;56152;49.996;18.980;2023-04-25T16:37:00;4.55;;;2.83;;
43646;SDS011;56152;49.996;18.980;2023-04-25T16:42:02;8.57;;;3.90;;
43646;SDS011;56152;49.996;18.980;2023-04-25T16:47:05;7.75;;;3.25;;
43646;SDS011;56152;49.996;18.980;2023-04-25T16:52:13;7.53;;;3.75;;
43646;SDS011;56152;49.996;18.980;2023-04-25T16:57:18;11.05;;;6.70;;
43646;SDS011;56152;49.996;18.980;2023-04-25T17:02:21;5.45;;;3.55;;
43646;SDS011;56152;49.996;18.980;2023-04-25T17:07:26;7.72;;;3.67;;
43646;SDS011;56152;49.996;18.980;2023-04-25T17:12:29;6.45;;;3.17;;
43646;SDS011;56152;49.996;18.980;2023-04-25T17:17:32;7.55;;;3.10;;
43646;SDS011;56152;49.996;18.980;2023-04-25T17:22:39;5.90;;;3.00;;
43646;SDS011;56152;49.996;18.980;2023-04-25T17:27:42;4.10;;;2.88;;
43646;SDS011;56152;49.996;18.980;2023-04-25T17:32:47;6.70;;;3.10;;
43646;SDS011;56152;49.996;18.980;2023-04-25T17:37:52;9.57;;;5.10;;
43646;SDS011;56152;49.996;18.980;2023-04-25T17:42:57;4.55;;;3.03;;
43646;SDS011;56152;49.996;18.980;2023-04-25T17:47:59;4.53;;;3.22;;
43646;SDS011;56152;49.996;18.980;2023-04-25T17:53:07;8.15;;;3.63;;
43646;SDS011;56152;49.996;18.980;2023-04-25T17:58:11;5.75;;;3.25;;
43646;SDS011;56152;49.996;18.980;2023-04-25T18:03:16;7.80;;;3.47;;
43646;SDS011;56152;49.996;18.980;2023-04-25T18:08:28;5.97;;;3.20;;
43646;SDS011;56152;49.996;18.980;2023-04-25T18:13:31;5.93;;;2.58;;
43646;SDS011;56152;49.996;18.980;2023-04-25T18:18:35;11.70;;;6.10;;
43646;SDS011;56152;49.996;18.980;2023-04-25T18:23:43;11.13;;;5.93;;
43646;SDS011;56152;49.996;18.980;2023-04-25T18:28:48;7.72;;;4.35;;
43646;SDS011;56152;49.996;18.980;2023-04-25T18:33:52;9.15;;;4.13;;
43646;SDS011;56152;49.996;18.980;2023-04-25T18:38:55;8.63;;;4.38;;
43646;SDS011;56152;49.996;18.980;2023-04-25T18:44:00;11.23;;;5.50;;
43646;SDS011;56152;49.996;18.980;2023-04-25T18:49:04;8.98;;;4.68;;
43646;SDS011;56152;49.996;18.980;2023-04-25T18:54:07;7.35;;;4.00;;
43646;SDS011;56152;49.996;18.980;2023-04-25T18:59:11;9.65;;;4.78;;
43646;SDS011;56152;49.996;18.980;2023-04-25T19:04:16;10.23;;;4.63;;
43646;SDS011;56152;49.996;18.980;2023-04-25T19:09:21;8.55;;;4.35;;
43646;SDS011;56152;49.996;18.980;2023-04-25T19:14:26;9.05;;;4.70;;
43646;SDS011;56152;49.996;18.980;2023-04-25T19:19:29;7.68;;;4.78;;
43646;SDS011;56152;49.996;18.980;2023-04-25T19:24:33;10.70;;;4.82;;
43646;SDS011;56152;49.996;18.980;2023-04-25T19:29:36;14.00;;;6.53;;
43646;SDS011;56152;49.996;18.980;2023-04-25T19:34:45;9.02;;;4.57;;
43646;SDS011;56152;49.996;18.980;2023-04-25T19:39:53;12.98;;;5.57;;
43646;SDS011;56152;49.996;18.980;2023-04-25T19:45:01;6.97;;;3.90;;
43646;SDS011;56152;49.996;18.980;2023-04-25T19:50:05;9.18;;;4.88;;
43646;SDS011;56152;49.996;18.980;2023-04-25T19:55:13;10.07;;;5.15;;
43646;SDS011;56152;49.996;18.980;2023-04-25T20:00:16;10.63;;;5.10;;
43646;SDS011;56152;49.996;18.980;2023-04-25T20:05:22;10.15;;;5.30;;
43646;SDS011;56152;49.996;18.980;2023-04-25T20:10:26;9.35;;;4.55;;
43646;SDS011;56152;49.996;18.980;2023-04-25T20:15:28;11.00;;;4.38;;
43646;SDS011;56152;49.996;18.980;2023-04-25T20:20:31;10.63;;;4.82;;
43646;SDS011;56152;49.996;18.980;2023-04-25T20:25:37;9.43;;;5.35;;
43646;SDS011;56152;49.996;18.980;2023-04-25T20:30:41;8.60;;;4.47;;
43646;SDS011;56152;49.996;18.980;2023-04-25T20:35:44;8.18;;;4.15;;
43646;SDS011;56152;49.996;18.980;2023-04-25T20:40:49;9.75;;;4.03;;
43646;SDS011;56152;49.996;18.980;2023-04-25T20:45:51;8.27;;;4.60;;
43646;SDS011;56152;49.996;18.980;2023-04-25T20:50:54;9.45;;;5.03;;
43646;SDS011;56152;49.996;18.980;2023-04-25T20:56:02;15.05;;;5.40;;
43646;SDS011;56152;49.996;18.980;2023-04-25T21:01:05;9.40;;;4.45;;
43646;SDS011;56152;49.996;18.980;2023-04-25T21:06:07;9.13;;;4.90;;
43646;SDS011;56152;49.996;18.980;2023-04-25T21:11:14;7.40;;;4.70;;
43646;SDS011;56152;49.996;18.980;2023-04-25T21:16:16;10.88;;;5.25;;
43646;SDS011;56152;49.996;18.980;2023-04-25T21:21:23;10.13;;;4.93;;
43646;SDS011;56152;49.996;18.980;2023-04-25T21:26:28;8.88;;;4.63;;
43646;SDS011;56152;49.996;18.980;2023-04-25T21:31:44;9.00;;;4.28;;
43646;SDS011;56152;49.996;18.980;2023-04-25T21:37:20;7.03;;;3.75;;
43646;SDS011;56152;49.996;18.980;2023-04-25T22:05:49;7.28;;;3.22;;
43646;SDS011;56152;49.996;18.980;2023-04-25T22:10:58;10.02;;;3.50;;
43646;SDS011;56152;49.996;18.980;2023-04-25T22:16:08;11.02;;;2.85;;
43646;SDS011;56152;49.996;18.980;2023-04-25T22:26:16;10.57;;;3.83;;
43646;SDS011;56152;49.996;18.980;2023-04-25T22:31:30;7.10;;;3.08;;
43646;SDS011;56152;49.996;18.980;2023-04-25T22:36:37;13.90;;;3.58;;
43646;SDS011;56152;49.996;18.980;2023-04-25T22:46:54;7.78;;;3.40;;
43646;SDS011;56152;49.996;18.980;2023-04-25T22:51:58;8.27;;;3.38;;
43646;SDS011;56152;49.996;18.980;2023-04-25T22:57:00;8.60;;;2.85;;
43646;SDS011;56152;49.996;18.980;2023-04-25T23:02:06;6.82;;;3.38;;
43646;SDS011;56152;49.996;18.980;2023-04-25T23:07:12;10.15;;;3.80;;
43646;SDS011;56152;49.996;18.980;2023-04-25T23:12:16;10.55;;;3.50;;
43646;SDS011;56152;49.996;18.980;2023-04-25T23:17:18;8.63;;;3.80;;
43646;SDS011;56152;49.996;18.980;2023-04-25T23:22:23;12.52;;;3.88;;
43646;SDS011;56152;49.996;18.980;2023-04-25T23:27:25;10.40;;;3.75;;
43646;SDS011;56152;49.996;18.980;2023-04-25T23:32:27;11.05;;;3.85;;
43646;SDS011;56152;49.996;18.980;2023-04-25T23:37:33;11.73;;;4.18;;
43646;SDS011;56152;49.996;18.980;2023-04-25T23:42:37;8.63;;;3.95;;
43646;SDS011;56152;49.996;18.980;2023-04-25T23:47:42;6.93;;;3.33;;
43646;SDS011;56152;49.996;18.980;2023-04-25T23:52:46;11.77;;;4.10;;
43646;SDS011;56152;49.996;18.980;2023-04-25T23:57:48;9.88;;;4.00;;
